Accueil
METAR-TAF:

METAR-TAF

Aéroports :

Aéroport de Cherbourg - Maupertus

Cherbourg, France

latitude: 49-39N, longitude: 001-28W, altitude: 138 m

Observation

Le bulletin a été fait il y a 40 minutes, à 12:30 UTC
Vent 5 kt de nord/nord-ouest, variant entre ouest et nord/nord-est
Température 19°C
Humidité 73%
Pression 1027 hPa
Visibilité 10 km ou plus
Quelques nuages à une hauteur de 2300 ft

METAR: LFRC 221230Z AUTO 33005KT 280V030 9999 FEW023 19/14 Q1027 NOSIG

Heure: 15:10 (13:10 UTC)

Prévision

Le bulletin a été fait il y a 2 heures et 10 minutes, à 11:00 UTC
Prévision valable du 22 à 12 UTC au 22 à 21 UTC
Vent 5 kt de ouest
Visibilité 10 km ou plus
Nuages épars à une hauteur de 4000 ft
Evoluant progressivement
du 22 à 12 UTC au 22 à 15 UTC
Vent 10 kt de est/nord-est

TAF: LFRC 221100Z 2212/2221 28005KT 9999 SCT040 BECMG 2212/2215 07010KT

Observations et prévisions météorologiques de plus de 4000 aéroports (messages METAR et TAF).

Les stations disponibles sont représentées par des disques jaunes et rouges sur la carte.

Passer la souris dessus pour voir le nom de la station.

Cliquer dessus pour voir les observations et prévisions météorologiques.

Pour changer de carte: cliquez sur les boutons verts avec une croix noire pour zoomer, sur le bouton vert avec un tiret pour effectuer un zoom arrière, ou sur les flèches vertes pour les cartes adjacentes.


METAR-TAF: